Vilnius, Lithuania
Current Conditions -  °F | °C
As of 6:50 AM on Monday 24 Nov 2014 (Local Time) from EYVI Reporting Station
Haze Haze  
Wind Chill: 25°   Ceiling: Unl
Heat Index: 25°   Visibility: 1.4mi
Dew Point: 25°   Wind: 3mph
Humidity: 100%   Direction: 120°ESE
Pressure: 30.5"   Gusts: NA
Location:  54.7°N, 25.27°E
Report Text: EYVI 240350Z 12003KT 2300 BR NSC M04/M04 Q1033 R20/2///95 NOSIG
Loading
Personal Weather Stations






























Interactive Weather Map New forecast layout! Learn more

10-Day Weather Forecast

Advertisements
Track Severe Weather on mobile